createdAt,value
2018-09-14T00:00:22.639Z,3.40
2018-09-14T00:01:22.656Z,3.90
2018-09-14T00:03:22.697Z,3.70
2018-09-14T00:04:22.694Z,4.00
2018-09-14T00:05:22.708Z,4.20
2018-09-14T00:06:22.721Z,3.90
2018-09-14T00:07:22.736Z,3.70
2018-09-14T00:08:22.748Z,3.80
2018-09-14T00:09:22.762Z,4.20
2018-09-14T00:10:22.779Z,4.90
2018-09-14T00:11:22.794Z,3.50
2018-09-14T00:12:23.006Z,4.20
2018-09-14T00:13:22.817Z,4.40
2018-09-14T00:14:22.834Z,3.90
2018-09-14T00:15:22.844Z,3.70
2018-09-14T00:16:22.857Z,3.80
2018-09-14T00:17:22.871Z,4.50
2018-09-14T00:18:22.887Z,4.10
2018-09-14T00:19:22.899Z,3.90
2018-09-14T00:20:22.910Z,3.90
2018-09-14T00:21:22.929Z,4.20
2018-09-14T00:22:22.942Z,3.60
2018-09-14T00:23:22.954Z,4.40
2018-09-14T00:24:22.967Z,4.50
2018-09-14T00:25:22.980Z,3.80
2018-09-14T00:26:23.006Z,4.10
2018-09-14T00:27:23.008Z,4.00
2018-09-14T00:28:23.021Z,4.40
2018-09-14T00:29:23.057Z,4.30
2018-09-14T00:30:23.047Z,3.90
2018-09-14T00:31:23.059Z,4.60
2018-09-14T00:32:23.076Z,4.10
2018-09-14T00:33:23.102Z,4.20
2018-09-14T00:34:23.243Z,4.50
2018-09-14T00:35:23.128Z,4.40
2018-09-14T00:36:23.131Z,4.20
2018-09-14T00:37:23.159Z,4.00
2018-09-14T00:38:23.160Z,4.10
2018-09-14T00:39:23.176Z,4.20
2018-09-14T00:40:23.187Z,4.90
2018-09-14T00:41:23.196Z,4.40
2018-09-14T00:42:23.211Z,4.50
2018-09-14T00:43:23.223Z,4.80
2018-09-14T00:44:23.551Z,5.00
2018-09-14T00:45:23.252Z,4.80
2018-09-14T00:46:23.264Z,4.30
2018-09-14T00:47:23.277Z,4.30
2018-09-14T00:48:23.296Z,4.60
2018-09-14T00:49:23.305Z,4.50
2018-09-14T00:50:23.319Z,4.60
2018-09-14T00:51:23.332Z,4.70
2018-09-14T00:52:23.348Z,4.60
2018-09-14T00:53:23.360Z,4.90
2018-09-14T00:54:23.372Z,4.80
2018-09-14T00:55:23.399Z,4.20
2018-09-14T00:56:23.403Z,4.30
2018-09-14T00:57:23.417Z,4.90
2018-09-14T00:58:23.430Z,4.30
2018-09-14T00:59:23.443Z,4.80
2018-09-14T01:00:23.458Z,4.60
2018-09-14T01:01:23.473Z,4.70
2018-09-14T01:02:23.483Z,5.10
2018-09-14T01:03:23.495Z,4.50
2018-09-14T01:04:23.557Z,4.40
2018-09-14T01:06:23.776Z,4.70
2018-09-14T01:07:23.560Z,4.60
2018-09-14T01:08:23.570Z,4.50
2018-09-14T01:09:23.582Z,4.80
2018-09-14T01:10:23.591Z,5.30
2018-09-14T01:11:23.602Z,4.60
2018-09-14T01:12:23.622Z,4.90
2018-09-14T01:13:23.630Z,4.90
2018-09-14T01:14:23.643Z,4.90
2018-09-14T01:15:23.662Z,4.90
2018-09-14T01:16:23.674Z,4.80
2018-09-14T01:17:23.748Z,5.20
2018-09-14T01:18:23.697Z,5.20
2018-09-14T01:19:23.711Z,4.70
2018-09-14T01:20:23.723Z,4.80
2018-09-14T01:21:23.737Z,4.90
2018-09-14T01:22:23.760Z,5.00
2018-09-14T01:23:23.763Z,5.20
2018-09-14T01:24:24.135Z,5.00
2018-09-14T01:25:23.790Z,4.90
2018-09-14T01:26:23.804Z,5.10
2018-09-14T01:27:23.818Z,5.00
2018-09-14T01:28:23.832Z,6.00
2018-09-14T01:29:23.844Z,5.40
2018-09-14T01:30:23.857Z,5.30
2018-09-14T01:31:23.869Z,4.90
2018-09-14T01:32:23.888Z,5.20
2018-09-14T01:33:23.905Z,4.90
2018-09-14T01:34:23.911Z,5.20
2018-09-14T01:35:23.937Z,5.20
2018-09-14T01:36:23.940Z,5.40
2018-09-14T01:37:23.990Z,5.70
2018-09-14T01:38:23.965Z,5.50
2018-09-14T01:39:23.991Z,5.20
2018-09-14T01:40:24.007Z,5.40
2018-09-14T01:41:24.006Z,5.80
2018-09-14T01:42:24.066Z,6.20
2018-09-14T01:43:24.037Z,5.00
2018-09-14T01:44:24.044Z,5.80
2018-09-14T01:45:24.058Z,5.60
2018-09-14T01:46:24.087Z,5.50
2018-09-14T01:47:24.088Z,5.80
2018-09-14T01:48:24.099Z,5.80
2018-09-14T01:49:24.117Z,5.70
2018-09-14T01:50:24.141Z,5.50
2018-09-14T01:51:24.165Z,5.30
2018-09-14T01:52:24.156Z,5.90
2018-09-14T01:53:24.167Z,5.30
2018-09-14T01:54:24.181Z,5.40
2018-09-14T01:55:24.191Z,5.70
2018-09-14T01:56:24.206Z,5.30
2018-09-14T01:57:24.219Z,5.30
2018-09-14T01:58:24.232Z,5.80
2018-09-14T01:59:24.265Z,5.80
2018-09-14T02:00:24.259Z,5.50
2018-09-14T02:01:24.274Z,5.70
2018-09-14T02:02:24.285Z,5.70
2018-09-14T02:03:24.368Z,6.20
2018-09-14T02:04:24.312Z,5.20
2018-09-14T02:05:24.333Z,5.80
2018-09-14T02:06:24.337Z,5.80
2018-09-14T02:07:24.352Z,6.20
2018-09-14T02:08:24.365Z,6.00
2018-09-14T02:09:24.382Z,5.70
2018-09-14T02:11:24.405Z,6.00
2018-09-14T02:12:24.678Z,5.50
2018-09-14T02:13:24.431Z,6.10
2018-09-14T02:14:24.446Z,6.00
2018-09-14T02:15:24.458Z,5.70
2018-09-14T02:16:24.474Z,6.10
2018-09-14T02:17:24.491Z,6.10
2018-09-14T02:18:24.498Z,6.20
2018-09-14T02:19:24.511Z,6.20
2018-09-14T02:20:24.525Z,6.60
2018-09-14T02:21:24.539Z,5.70
2018-09-14T02:22:24.552Z,5.70
2018-09-14T02:23:24.566Z,5.90
2018-09-14T02:24:24.580Z,6.30
2018-09-14T02:25:24.649Z,6.00
2018-09-14T02:26:24.606Z,6.30
2018-09-14T02:27:24.620Z,6.10
2018-09-14T02:28:24.635Z,6.50
2018-09-14T02:29:24.645Z,6.90
2018-09-14T02:30:24.660Z,6.10
2018-09-14T02:31:24.680Z,6.60
2018-09-14T02:32:24.684Z,6.90
2018-09-14T02:33:24.697Z,6.40
2018-09-14T02:34:24.713Z,6.30
2018-09-14T02:35:24.728Z,7.00
2018-09-14T02:36:24.739Z,6.80
2018-09-14T02:37:24.756Z,6.20
2018-09-14T02:38:24.776Z,7.10
2018-09-14T02:39:24.778Z,7.20
2018-09-14T02:40:24.791Z,7.10
2018-09-14T02:41:24.807Z,7.20
2018-09-14T02:42:24.818Z,6.70
2018-09-14T02:43:24.831Z,7.00
2018-09-14T02:44:24.852Z,7.00
2018-09-14T02:45:24.930Z,6.90
2018-09-14T02:46:24.869Z,7.10
2018-09-14T02:47:24.884Z,7.00
2018-09-14T02:48:24.897Z,7.30
2018-09-14T02:49:24.911Z,7.10
2018-09-14T02:50:24.922Z,6.70
2018-09-14T02:51:24.935Z,6.90
2018-09-14T02:52:24.952Z,7.10
2018-09-14T02:53:24.966Z,7.30
2018-09-14T02:54:24.977Z,7.10
2018-09-14T02:55:24.992Z,7.60
2018-09-14T02:56:25.004Z,7.20
2018-09-14T02:57:25.015Z,6.90
2018-09-14T02:58:25.057Z,7.20
2018-09-14T02:59:25.057Z,7.30
2018-09-14T03:00:25.057Z,7.60
2018-09-14T03:01:25.071Z,6.70
2018-09-14T03:02:25.081Z,7.00
2018-09-14T03:03:25.127Z,7.00
2018-09-14T03:04:25.107Z,7.40
2018-09-14T03:05:25.128Z,7.50
2018-09-14T03:06:25.135Z,7.20
2018-09-14T03:07:25.150Z,7.60
2018-09-14T03:08:25.162Z,7.40
2018-09-14T03:09:25.177Z,7.40
2018-09-14T03:10:25.190Z,7.20
2018-09-14T03:11:25.211Z,7.40
2018-09-14T03:12:25.211Z,6.90
2018-09-14T03:13:25.232Z,7.40
2018-09-14T03:14:25.307Z,7.40
2018-09-14T03:16:25.825Z,7.30
2018-09-14T03:17:25.286Z,6.90
2018-09-14T03:18:25.290Z,7.00
2018-09-14T03:19:25.303Z,7.30
2018-09-14T03:20:25.315Z,7.80
2018-09-14T03:21:25.334Z,6.80
2018-09-14T03:22:25.355Z,7.20
2018-09-14T03:23:25.361Z,7.20
2018-09-14T03:24:25.521Z,7.20
2018-09-14T03:25:25.383Z,8.00
2018-09-14T03:26:25.393Z,7.70
2018-09-14T03:27:25.408Z,7.20
2018-09-14T03:28:25.625Z,7.50
2018-09-14T03:29:25.444Z,7.30
2018-09-14T03:30:25.448Z,7.80
2018-09-14T03:31:25.462Z,8.00
2018-09-14T03:32:25.475Z,7.40
2018-09-14T03:33:25.485Z,7.60
2018-09-14T03:34:25.499Z,7.70
2018-09-14T03:35:25.513Z,8.10
2018-09-14T03:36:25.530Z,7.90
2018-09-14T03:37:25.539Z,8.60
2018-09-14T03:38:25.563Z,8.00
2018-09-14T03:39:25.637Z,8.50
2018-09-14T03:40:25.578Z,8.30
2018-09-14T03:41:25.595Z,8.00
2018-09-14T03:42:25.605Z,7.80
2018-09-14T03:43:25.923Z,7.90
2018-09-14T03:44:25.634Z,8.60
2018-09-14T03:45:25.642Z,8.90
2018-09-14T03:46:25.659Z,8.80
2018-09-14T03:47:25.759Z,8.40
2018-09-14T03:48:26.227Z,9.40
2018-09-14T03:49:25.698Z,7.90
2018-09-14T03:50:25.719Z,8.80
2018-09-14T03:51:25.726Z,9.00
2018-09-14T03:52:25.739Z,9.10
2018-09-14T03:53:25.752Z,8.80
2018-09-14T03:54:25.763Z,9.60
2018-09-14T03:55:25.774Z,9.20
2018-09-14T03:56:25.785Z,9.20
2018-09-14T03:57:25.815Z,8.70
2018-09-14T03:58:25.814Z,9.00
2018-09-14T03:59:25.827Z,8.60
2018-09-14T04:00:25.839Z,8.90
2018-09-14T04:01:25.851Z,9.40
2018-09-14T04:02:25.866Z,9.40
2018-09-14T04:03:25.881Z,9.40
2018-09-14T04:04:25.911Z,9.20
2018-09-14T04:05:25.907Z,9.90
2018-09-14T04:06:25.916Z,9.70
2018-09-14T04:07:25.934Z,9.00
2018-09-14T04:08:25.943Z,9.70
2018-09-14T04:09:25.961Z,9.60
2018-09-14T04:10:26.015Z,9.60
2018-09-14T04:11:25.981Z,10.00
2018-09-14T04:12:25.998Z,9.70
2018-09-14T04:13:26.009Z,9.60
2018-09-14T04:14:26.022Z,9.10
2018-09-14T04:15:26.035Z,9.90
2018-09-14T04:16:26.217Z,9.10
2018-09-14T04:17:26.078Z,9.70
2018-09-14T04:18:26.104Z,10.30
2018-09-14T04:19:26.098Z,9.80
2018-09-14T04:20:26.101Z,9.90
2018-09-14T04:21:26.120Z,9.80
2018-09-14T04:22:26.127Z,10.20
2018-09-14T04:23:26.155Z,9.90
2018-09-14T04:24:26.155Z,10.10
2018-09-14T04:25:26.164Z,10.80
2018-09-14T04:26:26.189Z,10.50
2018-09-14T04:27:26.197Z,10.40
2018-09-14T04:28:26.205Z,11.30
2018-09-14T04:29:26.221Z,10.60
2018-09-14T04:30:26.240Z,10.60
2018-09-14T04:31:26.269Z,10.60
2018-09-14T04:32:26.257Z,11.10
2018-09-14T04:33:26.270Z,11.00
2018-09-14T04:34:26.293Z,11.20
2018-09-14T04:35:26.297Z,10.30
2018-09-14T04:36:26.311Z,10.30
2018-09-14T04:37:26.323Z,10.00
2018-09-14T04:38:26.691Z,10.40
2018-09-14T04:39:26.350Z,10.90
2018-09-14T04:40:26.368Z,10.80
2018-09-14T04:41:26.379Z,11.60
2018-09-14T04:42:26.393Z,11.20
2018-09-14T04:43:26.404Z,10.60
2018-09-14T04:44:26.411Z,11.20
2018-09-14T04:45:26.425Z,10.80
2018-09-14T04:46:26.455Z,11.00
2018-09-14T04:47:26.452Z,10.60
2018-09-14T04:48:26.500Z,10.50
2018-09-14T04:49:26.487Z,10.70
2018-09-14T04:50:26.525Z,9.90
2018-09-14T04:51:26.815Z,10.20
2018-09-14T04:52:27.720Z,10.50
2018-09-14T04:53:26.786Z,10.40
2018-09-14T04:54:26.560Z,10.30
2018-09-14T04:55:26.556Z,10.00
2018-09-14T04:56:26.588Z,10.60
2018-09-14T04:57:26.609Z,10.20
2018-09-14T04:58:26.596Z,10.30
2018-09-14T04:59:26.608Z,10.00
2018-09-14T05:00:26.622Z,10.00
2018-09-14T05:01:26.632Z,10.00
2018-09-14T05:02:26.645Z,9.60
2018-09-14T05:03:26.665Z,9.30
2018-09-14T05:05:26.685Z,9.60
2018-09-14T05:06:26.703Z,10.20
2018-09-14T05:07:26.775Z,9.60
2018-09-14T05:08:26.723Z,8.90
2018-09-14T05:09:26.760Z,8.20
2018-09-14T05:10:26.748Z,8.50
2018-09-14T05:12:26.788Z,7.00
2018-09-14T05:13:26.791Z,7.80
2018-09-14T05:14:26.837Z,7.40
2018-09-14T05:15:26.818Z,7.00
2018-09-14T05:16:26.825Z,7.20
2018-09-14T05:17:26.845Z,7.20
2018-09-14T05:18:26.859Z,6.90
2018-09-14T05:19:26.865Z,7.60
2018-09-14T05:20:27.182Z,7.40
2018-09-14T05:21:26.929Z,6.60
2018-09-14T05:22:26.924Z,7.60
2018-09-14T05:23:26.921Z,7.20
2018-09-14T05:24:26.994Z,7.50
2018-09-14T05:25:26.943Z,8.10
2018-09-14T05:26:26.956Z,8.30
2018-09-14T05:27:26.978Z,8.00
2018-09-14T05:28:26.987Z,7.90
2018-09-14T05:29:27.054Z,7.80
2018-09-14T05:30:27.007Z,8.30
2018-09-14T05:31:27.027Z,8.20
2018-09-14T05:32:27.043Z,7.70
2018-09-14T05:33:27.047Z,7.60
2018-09-14T05:34:27.083Z,8.50
2018-09-14T05:35:27.404Z,8.10
2018-09-14T05:36:27.094Z,8.30
2018-09-14T05:37:27.132Z,7.90
2018-09-14T05:38:27.161Z,7.80
2018-09-14T05:39:27.123Z,8.50
2018-09-14T05:40:27.134Z,8.10
2018-09-14T05:41:27.156Z,8.50
2018-09-14T05:42:27.163Z,8.40
2018-09-14T05:44:27.189Z,8.80
2018-09-14T05:45:27.200Z,9.70
2018-09-14T05:46:27.212Z,8.60
2018-09-14T05:47:27.225Z,8.60
2018-09-14T05:48:27.240Z,8.30
2018-09-14T05:49:27.266Z,7.90
2018-09-14T05:50:27.274Z,8.50
2018-09-14T05:51:27.313Z,8.80
2018-09-14T05:52:27.836Z,8.10
2018-09-14T05:53:27.304Z,8.60
2018-09-14T05:54:27.348Z,8.60
2018-09-14T05:55:27.446Z,8.20
2018-09-14T05:56:27.362Z,7.70
2018-09-14T05:57:27.363Z,8.40
2018-09-14T05:58:27.369Z,8.40
2018-09-14T05:59:27.380Z,8.60
2018-09-14T06:00:27.394Z,8.90
2018-09-14T06:01:27.632Z,8.80
2018-09-14T06:02:27.434Z,8.50
2018-09-14T06:03:27.434Z,9.30
2018-09-14T06:04:27.450Z,9.00
2018-09-14T06:05:27.462Z,9.00
2018-09-14T06:06:27.469Z,10.20
2018-09-14T06:07:27.476Z,9.10
2018-09-14T06:08:27.503Z,8.70
2018-09-14T06:09:27.507Z,8.60
2018-09-14T06:10:27.556Z,8.70
2018-09-14T06:11:27.527Z,9.60
2018-09-14T06:12:27.541Z,9.80
2018-09-14T06:13:27.567Z,9.60
2018-09-14T06:14:27.566Z,9.80
2018-09-14T06:15:27.580Z,9.90
2018-09-14T06:16:27.598Z,10.90
2018-09-14T06:17:27.718Z,11.10
2018-09-14T06:18:27.624Z,11.10
2018-09-14T06:19:27.638Z,12.20
2018-09-14T06:20:27.645Z,11.00
2018-09-14T06:21:27.664Z,12.00
2018-09-14T06:22:27.726Z,11.90
2018-09-14T06:23:27.698Z,11.40
2018-09-14T06:24:27.820Z,11.60
2018-09-14T06:25:27.720Z,11.50
2018-09-14T06:26:27.725Z,11.90
2018-09-14T06:27:27.772Z,11.60
2018-09-14T06:28:27.749Z,11.20
2018-09-14T06:29:27.766Z,12.20
2018-09-14T06:30:27.803Z,10.90
2018-09-14T06:31:27.957Z,13.60
2018-09-14T06:32:27.803Z,14.30
2018-09-14T06:33:27.815Z,12.10
2018-09-14T06:34:27.828Z,11.90
2018-09-14T06:35:27.850Z,11.00
2018-09-14T06:36:29.029Z,12.10
2018-09-14T06:37:28.687Z,11.00
2018-09-14T06:38:27.898Z,10.30
2018-09-14T06:39:27.893Z,9.90
2018-09-14T06:40:28.097Z,10.70
2018-09-14T06:41:28.181Z,10.60
2018-09-14T06:42:27.934Z,10.40
2018-09-14T06:43:27.968Z,10.80
2018-09-14T06:44:27.964Z,10.40
2018-09-14T06:45:27.992Z,10.60
2018-09-14T06:46:27.986Z,10.20
2018-09-14T06:47:28.009Z,10.50
2018-09-14T06:48:28.231Z,11.00
2018-09-14T06:49:28.146Z,10.80
2018-09-14T06:50:28.245Z,10.80
2018-09-14T06:51:28.874Z,11.50
2018-09-14T06:52:28.885Z,11.70
2018-09-14T06:53:28.393Z,12.50
2018-09-14T06:55:28.115Z,11.70
2018-09-14T06:56:28.147Z,12.60
2018-09-14T06:57:28.180Z,12.50
2018-09-14T06:58:28.343Z,11.70
2018-09-14T06:59:29.517Z,11.80
2018-09-14T07:00:28.307Z,12.30
2018-09-14T07:01:29.791Z,11.50
2018-09-14T07:02:28.260Z,12.60
2018-09-14T07:03:28.212Z,12.20
2018-09-14T07:04:28.225Z,13.30
2018-09-14T07:05:28.237Z,13.00
2018-09-14T07:06:28.336Z,13.10
2018-09-14T07:07:28.349Z,14.00
2018-09-14T07:08:28.281Z,12.30
2018-09-14T07:09:28.296Z,11.50
2018-09-14T07:10:28.311Z,11.40
2018-09-14T07:11:28.341Z,11.40
2018-09-14T07:12:28.359Z,12.20
2018-09-14T07:13:28.343Z,12.10
2018-09-14T07:14:28.353Z,11.70
2018-09-14T07:15:28.372Z,11.10
2018-09-14T07:16:28.381Z,10.70
2018-09-14T07:17:28.394Z,10.90
2018-09-14T07:18:28.407Z,10.70
2018-09-14T07:19:28.423Z,11.00
2018-09-14T07:20:28.434Z,11.20
2018-09-14T07:21:28.448Z,10.90
2018-09-14T07:22:28.459Z,10.60
2018-09-14T07:23:28.472Z,11.30
2018-09-14T07:24:28.592Z,10.70
2018-09-14T07:25:28.526Z,11.00
2018-09-14T07:26:28.528Z,11.80
2018-09-14T07:27:28.557Z,11.90
2018-09-14T07:28:28.604Z,10.80
2018-09-14T07:29:28.561Z,10.60
2018-09-14T07:30:28.566Z,10.90
2018-09-14T07:31:28.805Z,9.90
2018-09-14T07:32:28.601Z,10.20
2018-09-14T07:33:28.613Z,10.30
2018-09-14T07:34:28.624Z,10.00
2018-09-14T07:35:28.864Z,9.80
2018-09-14T07:36:28.741Z,10.40
2018-09-14T07:37:28.913Z,10.40
2018-09-14T07:38:28.682Z,10.20
2018-09-14T07:39:28.685Z,10.10
2018-09-14T07:40:28.712Z,10.40
2018-09-14T07:41:29.231Z,10.50
2018-09-14T07:42:29.529Z,10.50
2018-09-14T07:43:28.751Z,10.10
2018-09-14T07:44:28.763Z,10.20
2018-09-14T07:45:28.815Z,10.50
2018-09-14T07:46:28.791Z,10.10
2018-09-14T07:47:28.793Z,10.90
2018-09-14T07:48:28.920Z,10.30
2018-09-14T07:49:28.860Z,11.40
2018-09-14T07:50:28.836Z,11.10
2018-09-14T07:51:28.845Z,11.40
2018-09-14T07:52:28.872Z,10.50
2018-09-14T07:53:28.903Z,11.00
2018-09-14T07:54:28.899Z,10.80
2018-09-14T07:55:28.942Z,10.80
2018-09-14T07:56:28.912Z,11.30
2018-09-14T07:57:28.928Z,11.20
2018-09-14T07:58:28.950Z,11.10
2018-09-14T07:59:28.967Z,11.60
2018-09-14T08:00:29.004Z,11.30
2018-09-14T08:01:29.010Z,11.60
2018-09-14T08:02:29.004Z,11.50
2018-09-14T08:03:29.006Z,11.60
2018-09-14T08:04:29.029Z,11.90
2018-09-14T08:05:29.045Z,12.00
2018-09-14T08:06:29.067Z,12.50
2018-09-14T08:07:29.071Z,12.90
2018-09-14T08:08:29.350Z,12.60
2018-09-14T08:09:29.116Z,12.70
2018-09-14T08:10:29.111Z,12.90
2018-09-14T08:11:29.124Z,12.30
2018-09-14T08:12:29.136Z,12.50
2018-09-14T08:13:29.164Z,12.70
2018-09-14T08:14:29.167Z,12.40
2018-09-14T08:15:29.181Z,12.10
2018-09-14T08:16:29.205Z,13.20
2018-09-14T08:17:29.217Z,12.00
2018-09-14T08:18:29.211Z,12.10
2018-09-14T08:19:29.236Z,12.70
2018-09-14T08:20:29.251Z,12.30
2018-09-14T08:21:29.296Z,12.30
2018-09-14T08:22:29.264Z,12.00
2018-09-14T08:23:29.280Z,12.40
2018-09-14T08:24:29.303Z,12.90
2018-09-14T08:25:29.307Z,12.80
2018-09-14T08:26:29.319Z,12.80
2018-09-14T08:27:29.545Z,12.80
2018-09-14T08:28:29.356Z,13.00
2018-09-14T08:29:29.367Z,12.90
2018-09-14T08:30:29.375Z,13.40
2018-09-14T08:31:29.398Z,12.90
2018-09-14T08:32:29.456Z,12.30
2018-09-14T08:33:29.473Z,11.70
2018-09-14T08:34:29.441Z,12.70
2018-09-14T08:35:29.487Z,13.10
2018-09-14T08:36:29.465Z,12.10
2018-09-14T08:37:30.127Z,12.50
2018-09-14T08:38:29.493Z,12.10
2018-09-14T08:39:29.509Z,12.40
2018-09-14T08:40:30.042Z,12.10
2018-09-14T08:41:29.531Z,12.20
2018-09-14T08:42:29.545Z,13.10
2018-09-14T08:43:29.559Z,12.90
2018-09-14T08:44:29.574Z,12.40
2018-09-14T08:45:30.161Z,13.30
2018-09-14T08:46:29.603Z,12.80
2018-09-14T08:47:30.029Z,14.00
2018-09-14T08:48:29.628Z,13.10
2018-09-14T08:49:29.647Z,13.30
2018-09-14T08:50:29.662Z,12.50
2018-09-14T08:51:29.749Z,13.10
2018-09-14T08:52:29.685Z,12.90
2018-09-14T08:54:29.878Z,13.50
2018-09-14T08:55:29.734Z,13.80
2018-09-14T08:56:29.864Z,13.70
2018-09-14T08:57:29.755Z,13.90
2018-09-14T08:58:29.795Z,13.80
2018-09-14T08:59:29.783Z,13.30
2018-09-14T09:00:29.811Z,13.40
2018-09-14T09:01:29.835Z,14.90
2018-09-14T09:02:29.857Z,14.50
2018-09-14T09:03:29.845Z,14.70
2018-09-14T09:04:30.072Z,14.40
2018-09-14T09:05:29.928Z,15.00
2018-09-14T09:06:31.385Z,15.60
2018-09-14T09:07:29.936Z,16.50
2018-09-14T09:08:29.910Z,14.80
2018-09-14T09:09:29.988Z,22.50
2018-09-14T09:10:29.939Z,18.40
2018-09-14T09:11:30.060Z,16.60
2018-09-14T09:12:29.983Z,15.10
2018-09-14T09:13:30.001Z,14.70
2018-09-14T09:14:30.209Z,14.60
2018-09-14T09:16:30.047Z,15.50
2018-09-14T09:17:30.045Z,15.50
2018-09-14T09:18:31.834Z,15.90
2018-09-14T09:19:30.217Z,15.60
2018-09-14T09:20:30.103Z,15.80
2018-09-14T09:21:30.175Z,16.30
2018-09-14T09:22:30.111Z,15.50
2018-09-14T09:23:30.147Z,16.20
2018-09-14T09:24:30.155Z,15.80
2018-09-14T09:25:30.175Z,16.50
2018-09-14T09:26:30.274Z,15.50
2018-09-14T09:27:30.757Z,16.10
2018-09-14T09:28:31.018Z,16.20
2018-09-14T09:29:30.254Z,16.30
2018-09-14T09:30:31.562Z,15.80
2018-09-14T09:31:30.240Z,15.90
2018-09-14T09:32:30.262Z,16.10
2018-09-14T09:33:30.321Z,16.80
2018-09-14T09:34:30.282Z,17.00
2018-09-14T09:35:30.344Z,16.40
2018-09-14T09:36:30.318Z,17.30
2018-09-14T09:37:30.379Z,17.50
2018-09-14T09:38:30.600Z,18.00
2018-09-14T09:39:30.717Z,17.40
2018-09-14T09:40:30.372Z,17.70
2018-09-14T09:41:30.393Z,17.30
2018-09-14T09:42:30.417Z,17.10
2018-09-14T09:43:30.719Z,17.30
2018-09-14T09:44:30.478Z,17.60
2018-09-14T09:45:30.908Z,17.70
2018-09-14T09:46:31.842Z,18.00
2018-09-14T09:47:30.813Z,18.20
2018-09-14T09:48:30.754Z,17.60
2018-09-14T09:49:30.550Z,18.40
2018-09-14T09:50:30.517Z,18.60
2018-09-14T09:51:30.696Z,17.90
2018-09-14T09:52:30.568Z,18.40
2018-09-14T09:53:31.579Z,17.80
2018-09-14T09:55:31.768Z,18.20
2018-09-14T09:56:31.199Z,17.60
2018-09-14T09:57:30.874Z,17.70
2018-09-14T09:59:30.809Z,18.50
2018-09-14T10:00:30.749Z,16.90
2018-09-14T10:01:30.787Z,18.40
2018-09-14T10:02:30.684Z,18.00
2018-09-14T10:03:30.823Z,17.70
2018-09-14T10:04:30.929Z,18.20
2018-09-14T10:05:30.727Z,18.10
2018-09-14T10:07:34.308Z,18.10
2018-09-14T10:08:31.899Z,17.50
2018-09-14T10:09:30.873Z,17.40
2018-09-14T10:10:30.914Z,17.60
2018-09-14T10:11:30.822Z,18.50
2018-09-14T10:12:30.839Z,18.70
2018-09-14T10:13:30.950Z,18.70
2018-09-14T10:14:30.946Z,16.50
2018-09-14T10:15:30.944Z,18.20
2018-09-14T10:16:30.932Z,16.80
2018-09-14T10:17:30.903Z,17.40
2018-09-14T10:18:30.921Z,16.40
2018-09-14T10:19:30.942Z,16.10
2018-09-14T10:20:30.973Z,13.40
2018-09-14T10:21:30.989Z,15.80
2018-09-14T10:22:30.993Z,16.70
2018-09-14T10:23:31.198Z,16.20
2018-09-14T10:24:31.014Z,17.50
2018-09-14T10:25:31.019Z,16.60
2018-09-14T10:27:31.110Z,14.30
2018-09-14T10:28:31.092Z,13.30
2018-09-14T10:29:31.079Z,14.40
2018-09-14T10:30:31.096Z,14.10
2018-09-14T10:31:31.186Z,14.10
2018-09-14T10:32:31.128Z,13.50
2018-09-14T10:33:31.148Z,13.90
2018-09-14T10:34:31.153Z,13.20
2018-09-14T10:35:31.179Z,13.00
2018-09-14T10:36:31.183Z,13.60
2018-09-14T10:37:31.222Z,14.10
2018-09-14T10:38:31.224Z,13.50
2018-09-14T10:39:31.226Z,13.70
2018-09-14T10:40:31.277Z,13.20
2018-09-14T10:41:31.259Z,10.30
2018-09-14T10:42:31.286Z,8.40
2018-09-14T10:43:31.492Z,8.90
2018-09-14T10:44:31.343Z,8.60
2018-09-14T10:45:31.449Z,8.30
2018-09-14T10:46:31.343Z,9.00
2018-09-14T10:47:31.349Z,8.80
2018-09-14T10:48:31.361Z,8.90
2018-09-14T10:49:31.501Z,9.40
2018-09-14T10:50:31.608Z,8.90
2018-09-14T10:51:33.825Z,9.00
2018-09-14T10:52:32.309Z,8.90
2018-09-14T10:53:31.581Z,8.20
2018-09-14T10:54:32.438Z,7.90
2018-09-14T10:55:32.496Z,8.00
2018-09-14T10:56:32.540Z,7.10
2018-09-14T10:57:31.651Z,7.20
2018-09-14T10:58:31.549Z,7.10
2018-09-14T10:59:31.539Z,7.60
2018-09-14T11:00:31.552Z,7.10
2018-09-14T11:01:31.636Z,6.80
2018-09-14T11:02:31.625Z,6.90
2018-09-14T11:03:31.620Z,6.50
2018-09-14T11:04:31.645Z,6.80
2018-09-14T11:05:31.619Z,6.50
2018-09-14T11:06:31.684Z,7.20
2018-09-14T11:07:31.664Z,6.70
2018-09-14T11:08:32.015Z,7.30
2018-09-14T11:09:31.683Z,6.70
2018-09-14T11:10:31.695Z,6.80
2018-09-14T11:11:32.036Z,6.80
2018-09-14T11:12:31.775Z,7.20
2018-09-14T11:13:31.762Z,6.90
2018-09-14T11:14:31.754Z,6.80
2018-09-14T11:15:31.829Z,6.50
2018-09-14T11:16:32.074Z,6.60
2018-09-14T11:17:32.155Z,6.60
2018-09-14T11:18:31.868Z,6.90
2018-09-14T11:19:32.303Z,6.50
2018-09-14T11:20:31.861Z,6.50
2018-09-14T11:21:31.874Z,6.80
2018-09-14T11:22:31.906Z,6.30
2018-09-14T11:23:31.886Z,7.00
2018-09-14T11:24:31.929Z,6.50
2018-09-14T11:25:31.925Z,6.90
2018-09-14T11:26:31.944Z,6.60
2018-09-14T11:27:31.953Z,6.70
2018-09-14T11:28:31.963Z,7.50
2018-09-14T11:29:32.226Z,6.90
2018-09-14T11:30:32.006Z,6.70
2018-09-14T11:31:32.457Z,7.00
2018-09-14T11:32:32.843Z,7.00
2018-09-14T11:34:32.148Z,7.20
2018-09-14T11:35:32.079Z,7.20
2018-09-14T11:36:32.089Z,7.40
2018-09-14T11:37:32.175Z,7.10
2018-09-14T11:38:32.248Z,7.60
2018-09-14T11:39:32.128Z,8.20
2018-09-14T11:40:32.158Z,7.60
2018-09-14T11:41:32.501Z,7.60
2018-09-14T11:43:32.194Z,7.10
2018-09-14T11:44:33.116Z,7.30
2018-09-14T11:45:32.267Z,7.50
2018-09-14T11:46:32.249Z,7.60
2018-09-14T11:47:32.262Z,7.00
2018-09-14T11:48:32.472Z,7.30
2018-09-14T11:49:32.345Z,7.20
2018-09-14T11:50:32.362Z,7.60
2018-09-14T11:51:32.971Z,6.90
2018-09-14T11:52:32.661Z,6.50
2018-09-14T11:53:32.631Z,6.80
2018-09-14T11:54:32.596Z,6.50
2018-09-14T11:55:32.667Z,6.40
2018-09-14T11:56:32.383Z,7.40
2018-09-14T11:57:32.460Z,7.20
2018-09-14T11:58:32.411Z,7.40
2018-09-14T11:59:32.426Z,7.00
2018-09-14T12:00:32.442Z,7.10
2018-09-14T12:01:32.535Z,7.00
2018-09-14T12:02:32.471Z,6.60
2018-09-14T12:03:32.487Z,7.10
2018-09-14T12:04:32.523Z,7.00
2018-09-14T12:05:32.520Z,6.70
2018-09-14T12:06:32.535Z,7.50
2018-09-14T12:07:32.547Z,6.90
2018-09-14T12:08:32.563Z,6.90
2018-09-14T12:09:32.593Z,6.60
2018-09-14T12:10:32.597Z,6.50
2018-09-14T12:11:32.612Z,5.80
2018-09-14T12:12:32.644Z,5.90
2018-09-14T12:13:32.703Z,5.80
2018-09-14T12:14:32.654Z,5.70
2018-09-14T12:15:32.681Z,6.30
2018-09-14T12:16:32.687Z,6.50
2018-09-14T12:17:32.716Z,6.50
2018-09-14T12:18:32.731Z,6.40
2018-09-14T12:19:32.732Z,6.80
2018-09-14T12:20:32.746Z,6.60
2018-09-14T12:21:32.772Z,7.00
2018-09-14T12:22:32.781Z,6.50
2018-09-14T12:23:33.006Z,6.30
2018-09-14T12:24:33.304Z,7.40
2018-09-14T12:25:32.869Z,6.90
2018-09-14T12:26:32.928Z,6.40
2018-09-14T12:27:32.891Z,7.30
2018-09-14T12:28:32.880Z,6.40
2018-09-14T12:29:32.888Z,7.00
2018-09-14T12:30:32.900Z,6.10
2018-09-14T12:31:32.916Z,6.90
2018-09-14T12:32:32.931Z,7.10
2018-09-14T12:33:32.952Z,7.40
2018-09-14T12:34:32.965Z,6.90
2018-09-14T12:35:33.038Z,6.70
2018-09-14T12:36:32.993Z,6.40
2018-09-14T12:37:33.028Z,6.00
2018-09-14T12:38:33.029Z,7.10
2018-09-14T12:39:33.041Z,6.40
2018-09-14T12:40:33.056Z,6.50
2018-09-14T12:41:33.092Z,6.90
2018-09-14T12:42:33.111Z,7.10
2018-09-14T12:43:33.103Z,7.40
2018-09-14T12:44:33.117Z,7.10
2018-09-14T12:45:33.138Z,7.60
2018-09-14T12:46:33.157Z,7.60
2018-09-14T12:47:33.168Z,8.20
2018-09-14T12:48:33.206Z,7.40
2018-09-14T12:49:33.198Z,7.90
2018-09-14T12:50:33.217Z,7.90
2018-09-14T12:51:33.233Z,7.60
2018-09-14T12:52:33.249Z,7.70
2018-09-14T12:53:33.263Z,7.40
2018-09-14T12:54:33.277Z,7.60
2018-09-14T12:55:33.294Z,8.30
2018-09-14T12:56:33.313Z,8.50
2018-09-14T12:58:33.790Z,8.60
2018-09-14T12:59:34.084Z,9.30
2018-09-14T13:00:33.470Z,9.50
2018-09-14T13:01:33.899Z,9.20
2018-09-14T13:02:33.415Z,9.00
2018-09-14T13:03:33.422Z,9.10
2018-09-14T13:04:33.436Z,10.10
2018-09-14T13:05:33.450Z,9.90
2018-09-14T13:06:33.481Z,9.60
2018-09-14T13:07:33.482Z,10.10
2018-09-14T13:08:33.499Z,10.40
2018-09-14T13:09:33.517Z,10.60
2018-09-14T13:10:33.553Z,10.50
2018-09-14T13:11:33.553Z,10.90
2018-09-14T13:12:33.565Z,11.10
2018-09-14T13:13:33.588Z,11.10
2018-09-14T13:14:33.602Z,10.40
2018-09-14T13:15:33.614Z,10.80
2018-09-14T13:16:33.629Z,9.70
2018-09-14T13:17:33.641Z,9.70
2018-09-14T13:18:33.656Z,10.20
2018-09-14T13:19:33.675Z,10.40
2018-09-14T13:20:33.689Z,10.00
2018-09-14T13:21:33.709Z,9.60
2018-09-14T13:22:33.720Z,10.60
2018-09-14T13:23:33.736Z,9.90
2018-09-14T13:24:33.753Z,9.00
2018-09-14T13:26:34.039Z,10.50